createdAt,value
2022-07-28T00:04:22.432Z,16.64
2022-07-28T00:09:25.133Z,16.64
2022-07-28T00:14:27.801Z,16.61
2022-07-28T00:19:30.640Z,16.58
2022-07-28T00:24:33.639Z,16.60
2022-07-28T00:29:49.141Z,16.60
2022-07-28T00:34:53.895Z,16.57
2022-07-28T00:39:57.200Z,16.52
2022-07-28T00:44:59.975Z,16.48
2022-07-28T00:50:04.443Z,16.46
2022-07-28T00:55:07.542Z,16.39
2022-07-28T01:00:11.282Z,16.34
2022-07-28T01:05:15.455Z,16.28
2022-07-28T01:10:46.007Z,16.20
2022-07-28T01:16:01.886Z,16.11
2022-07-28T01:21:13.570Z,16.03
2022-07-28T01:26:20.256Z,16.01
2022-07-28T01:31:26.542Z,16.01
2022-07-28T01:36:31.603Z,15.97
2022-07-28T01:41:38.667Z,15.97
2022-07-28T01:46:43.900Z,16.00
2022-07-28T01:51:48.350Z,15.97
2022-07-28T01:56:54.002Z,15.95
2022-07-28T02:01:59.605Z,15.93
2022-07-28T02:07:04.149Z,15.90
2022-07-28T02:12:09.872Z,15.89
2022-07-28T02:17:16.531Z,15.88
2022-07-28T02:22:21.339Z,15.88
2022-07-28T02:27:34.437Z,15.88
2022-07-28T02:32:50.925Z,16.15
2022-07-28T02:38:02.071Z,19.03
2022-07-28T02:43:10.500Z,18.42
2022-07-28T02:48:17.633Z,17.43
2022-07-28T02:53:22.648Z,16.91
2022-07-28T02:58:28.044Z,16.57
2022-07-28T03:03:33.753Z,16.37
2022-07-28T03:08:36.529Z,18.01
2022-07-28T03:13:39.884Z,19.78
2022-07-28T03:18:42.614Z,18.35
2022-07-28T03:23:48.166Z,17.48
2022-07-28T03:28:53.198Z,16.98
2022-07-28T03:33:56.791Z,16.58
2022-07-28T03:39:04.094Z,16.31
2022-07-28T03:44:09.419Z,17.54
2022-07-28T03:49:12.487Z,20.52
2022-07-28T03:54:15.780Z,20.17
2022-07-28T03:59:19.844Z,18.63
2022-07-28T04:04:23.481Z,17.74
2022-07-28T04:09:26.189Z,17.13
2022-07-28T04:14:28.851Z,16.75
2022-07-28T04:19:31.553Z,17.59
2022-07-28T04:24:34.268Z,20.06
2022-07-28T04:29:36.951Z,18.94
2022-07-28T04:34:39.674Z,17.86
2022-07-28T04:39:42.659Z,17.29
2022-07-28T04:44:45.647Z,16.93
2022-07-28T04:49:48.343Z,18.07
2022-07-28T04:54:51.226Z,18.93
2022-07-28T04:59:56.716Z,17.83
2022-07-28T05:04:59.726Z,17.24
2022-07-28T05:10:03.772Z,17.46
2022-07-28T05:15:08.521Z,19.37
2022-07-28T05:20:13.704Z,18.32
2022-07-28T05:25:24.030Z,17.65
2022-07-28T05:30:26.900Z,17.58
2022-07-28T05:35:30.133Z,19.94
2022-07-28T05:40:33.266Z,19.15
2022-07-28T05:45:36.131Z,18.26
2022-07-28T05:50:39.231Z,17.88
2022-07-28T05:55:59.729Z,20.01
2022-07-28T06:01:04.410Z,20.54
2022-07-28T06:06:16.334Z,19.40
2022-07-28T06:11:22.673Z,18.82
2022-07-28T06:16:25.793Z,18.55
2022-07-28T06:21:28.664Z,19.73
2022-07-28T06:26:31.356Z,21.78
2022-07-28T06:31:35.016Z,20.63
2022-07-28T06:36:38.506Z,19.91
2022-07-28T06:41:43.614Z,19.56
2022-07-28T06:46:46.610Z,19.22
2022-07-28T06:51:49.426Z,19.17
2022-07-28T06:56:53.876Z,21.50
2022-07-28T07:02:01.871Z,23.21
2022-07-28T07:07:14.962Z,22.01
2022-07-28T07:12:20.096Z,21.26
2022-07-28T07:17:23.196Z,20.89
2022-07-28T07:22:26.040Z,20.58
2022-07-28T07:27:28.892Z,20.27
2022-07-28T07:32:31.823Z,20.11
2022-07-28T07:37:34.540Z,20.01
2022-07-28T07:42:38.463Z,19.90
2022-07-28T07:47:41.252Z,19.79
2022-07-28T07:52:43.947Z,19.76
2022-07-28T07:57:46.668Z,19.80
2022-07-28T08:02:49.401Z,19.88
2022-07-28T08:07:53.015Z,20.00
2022-07-28T08:12:55.703Z,20.14
2022-07-28T08:17:58.725Z,20.26
2022-07-28T08:23:01.464Z,20.28
2022-07-28T08:28:04.581Z,20.35
2022-07-28T08:33:07.311Z,20.50
2022-07-28T08:38:12.444Z,20.64
2022-07-28T08:43:30.960Z,20.70
2022-07-28T08:48:36.531Z,20.80
2022-07-28T08:53:41.125Z,20.95
2022-07-28T08:58:44.125Z,21.10
2022-07-28T09:03:46.925Z,21.21
2022-07-28T09:08:49.653Z,21.34
2022-07-28T09:13:54.149Z,21.46
2022-07-28T09:18:57.234Z,21.68
2022-07-28T09:24:01.532Z,21.91
2022-07-28T09:29:04.498Z,22.14
2022-07-28T09:34:07.419Z,22.03
2022-07-28T09:39:10.639Z,21.72
2022-07-28T09:44:21.550Z,21.67
2022-07-28T09:49:43.018Z,21.86
2022-07-28T09:55:01.327Z,22.36
2022-07-28T10:00:12.002Z,22.80
2022-07-28T10:05:16.501Z,22.77
2022-07-28T10:10:22.242Z,22.79
2022-07-28T10:15:51.153Z,22.67
2022-07-28T10:20:54.359Z,22.44
2022-07-28T10:25:58.650Z,22.20
2022-07-28T10:31:03.048Z,22.36
2022-07-28T10:36:07.587Z,22.81
2022-07-28T10:41:12.527Z,22.87
2022-07-28T10:46:16.852Z,22.72
2022-07-28T10:51:21.806Z,22.54
2022-07-28T10:56:46.919Z,22.28
2022-07-28T11:01:51.027Z,22.04
2022-07-28T11:07:10.760Z,21.85
2022-07-28T11:12:16.043Z,21.70
2022-07-28T11:17:24.020Z,21.63
2022-07-28T11:22:32.091Z,21.78
2022-07-28T11:27:49.730Z,21.98
2022-07-28T11:32:53.548Z,22.22
2022-07-28T11:38:02.737Z,22.38
2022-07-28T11:43:22.121Z,22.40
2022-07-28T11:48:26.427Z,22.45
2022-07-28T11:53:48.849Z,22.48
2022-07-28T11:58:57.802Z,22.57
2022-07-28T12:04:10.349Z,22.73
2022-07-28T12:09:13.614Z,22.84
2022-07-28T12:14:17.769Z,22.92
2022-07-28T12:19:21.463Z,23.04
2022-07-28T12:24:32.125Z,23.14
2022-07-28T12:29:59.962Z,23.17
2022-07-28T12:35:03.023Z,23.21
2022-07-28T12:40:08.978Z,23.21
2022-07-28T12:45:12.585Z,23.17
2022-07-28T12:50:20.416Z,23.02
2022-07-28T12:55:26.966Z,22.98
2022-07-28T13:00:33.499Z,22.91
2022-07-28T13:05:57.775Z,22.76
2022-07-28T13:11:00.500Z,22.63
2022-07-28T13:16:24.395Z,22.51
2022-07-28T13:22:01.726Z,22.37
2022-07-28T13:27:07.083Z,22.30
2022-07-28T13:32:11.816Z,22.23
2022-07-28T13:37:14.787Z,22.16
2022-07-28T13:42:18.436Z,22.14
2022-07-28T13:47:21.143Z,22.19
2022-07-28T13:52:33.255Z,22.29
2022-07-28T13:57:38.051Z,22.42
2022-07-28T14:02:48.874Z,22.55
2022-07-28T14:07:51.734Z,22.72
2022-07-28T14:12:54.719Z,22.81
2022-07-28T14:17:57.811Z,22.96
2022-07-28T14:23:00.782Z,23.22
2022-07-28T14:28:03.605Z,23.49
2022-07-28T14:33:06.591Z,23.70
2022-07-28T14:43:32.773Z,24.24
2022-07-28T14:48:35.523Z,24.23
2022-07-28T14:53:40.005Z,24.20
2022-07-28T14:58:46.299Z,24.28
2022-07-28T15:03:48.974Z,24.41
2022-07-28T15:08:51.682Z,24.58
2022-07-28T15:13:54.498Z,24.67
2022-07-28T15:18:57.329Z,24.64
2022-07-28T15:24:00.672Z,24.64
2022-07-28T15:29:04.471Z,24.85
2022-07-28T15:34:07.196Z,24.97
2022-07-28T15:39:15.735Z,25.07
2022-07-28T15:44:19.056Z,25.17
2022-07-28T15:49:28.906Z,25.32
2022-07-28T15:54:32.067Z,25.42
2022-07-28T15:59:49.271Z,25.51
2022-07-28T16:04:54.461Z,25.47
2022-07-28T16:09:57.370Z,25.33
2022-07-28T16:15:00.142Z,25.12
2022-07-28T16:20:04.661Z,24.95
2022-07-28T16:25:16.963Z,24.86
2022-07-28T16:30:20.094Z,24.75
2022-07-28T16:35:22.826Z,24.59
2022-07-28T16:40:25.592Z,24.42
2022-07-28T16:45:30.951Z,24.26
2022-07-28T16:50:34.299Z,24.14
2022-07-28T16:55:36.972Z,23.99
2022-07-28T17:00:39.656Z,23.80
2022-07-28T17:05:42.948Z,23.63
2022-07-28T17:10:46.792Z,23.44
2022-07-28T17:15:49.812Z,23.29
2022-07-28T17:20:52.723Z,23.12
2022-07-28T17:31:18.200Z,22.85
2022-07-28T17:36:20.924Z,22.66
2022-07-28T17:41:23.633Z,22.45
2022-07-28T17:46:26.616Z,22.25
2022-07-28T17:51:30.890Z,22.09
2022-07-28T17:56:34.095Z,21.95
2022-07-28T18:01:38.960Z,21.80
2022-07-28T18:06:45.963Z,21.68
2022-07-28T18:11:57.270Z,21.57
2022-07-28T18:17:01.446Z,21.48
2022-07-28T18:22:05.413Z,21.40
2022-07-28T18:27:08.129Z,21.31
2022-07-28T18:32:12.245Z,21.20
2022-07-28T18:37:15.005Z,21.07
2022-07-28T18:42:17.674Z,20.95
2022-07-28T18:47:21.234Z,20.82
2022-07-28T18:52:24.440Z,20.70
2022-07-28T18:57:27.368Z,20.59
2022-07-28T19:02:30.153Z,20.44
2022-07-28T19:07:33.576Z,20.28
2022-07-28T19:12:36.295Z,20.16
2022-07-28T19:17:40.639Z,20.04
2022-07-28T19:22:43.408Z,19.92
2022-07-28T19:27:46.125Z,21.00
2022-07-28T19:32:48.808Z,23.84
2022-07-28T19:37:51.489Z,24.23
2022-07-28T19:42:54.153Z,22.67
2022-07-28T19:47:56.888Z,21.73
2022-07-28T19:52:59.593Z,21.13
2022-07-28T19:58:03.919Z,20.67
2022-07-28T20:03:59.970Z,20.27
2022-07-28T20:08:31.423Z,19.89
2022-07-28T20:13:34.515Z,20.82
2022-07-28T20:18:37.305Z,23.54
2022-07-28T20:23:41.047Z,23.79
2022-07-28T20:28:44.524Z,22.10
2022-07-28T20:33:47.580Z,21.07
2022-07-28T20:38:50.396Z,20.42
2022-07-28T20:44:18.485Z,19.93
2022-07-28T20:49:16.265Z,19.47
2022-07-28T20:54:19.098Z,20.39
2022-07-28T20:59:27.380Z,23.06
2022-07-28T21:04:30.827Z,23.07
2022-07-28T21:09:33.940Z,21.36
2022-07-28T21:14:36.618Z,20.38
2022-07-28T21:19:39.295Z,19.68
2022-07-28T21:24:41.999Z,19.10
2022-07-28T21:29:44.858Z,19.96
2022-07-28T21:34:47.601Z,22.64
2022-07-28T21:39:50.309Z,22.81
2022-07-28T21:44:52.962Z,21.03
2022-07-28T21:49:55.617Z,20.00
2022-07-28T21:55:00.968Z,19.28
2022-07-28T22:00:08.055Z,19.99
2022-07-28T22:05:10.815Z,22.55
2022-07-28T22:10:14.015Z,22.60
2022-07-28T22:15:18.016Z,20.77
2022-07-28T22:20:20.938Z,19.69
2022-07-28T22:25:23.821Z,18.97
2022-07-28T22:30:26.593Z,18.40
2022-07-28T22:35:29.289Z,19.33
2022-07-28T22:40:32.267Z,21.99
2022-07-28T22:45:50.872Z,22.11
2022-07-28T22:50:54.455Z,20.19
2022-07-28T22:55:57.188Z,19.14
2022-07-28T23:01:00.204Z,18.37
2022-07-28T23:06:03.667Z,19.16
2022-07-28T23:11:06.742Z,21.81
2022-07-28T23:16:14.000Z,21.80
2022-07-28T23:21:16.762Z,19.95
2022-07-28T23:26:19.482Z,18.79
2022-07-28T23:31:22.275Z,17.98
2022-07-28T23:36:27.821Z,18.77
2022-07-28T23:41:31.027Z,21.47
2022-07-28T23:46:33.875Z,20.95
2022-07-28T23:51:48.202Z,19.33
2022-07-28T23:56:56.576Z,18.33
